sensor_id;sensor_type;location;lat;lon;timestamp;P1;durP1;ratioP1;P2;durP2;ratioP2
7683;SDS011;3884;48.616;12.872;2022-08-23T00:01:44;4.40;;;3.47;;
7683;SDS011;3884;48.616;12.872;2022-08-23T00:04:16;6.47;;;3.90;;
7683;SDS011;3884;48.616;12.872;2022-08-23T00:06:45;4.07;;;3.67;;
7683;SDS011;3884;48.616;12.872;2022-08-23T00:09:14;3.93;;;3.47;;
7683;SDS011;3884;48.616;12.872;2022-08-23T00:11:44;4.10;;;3.67;;
7683;SDS011;3884;48.616;12.872;2022-08-23T00:14:13;3.93;;;3.63;;
7683;SDS011;3884;48.616;12.872;2022-08-23T00:16:43;4.70;;;3.70;;
7683;SDS011;3884;48.616;12.872;2022-08-23T00:19:11;5.03;;;3.30;;
7683;SDS011;3884;48.616;12.872;2022-08-23T00:21:39;4.00;;;3.60;;
7683;SDS011;3884;48.616;12.872;2022-08-23T00:24:06;4.23;;;3.50;;
7683;SDS011;3884;48.616;12.872;2022-08-23T00:26:53;5.07;;;3.80;;
7683;SDS011;3884;48.616;12.872;2022-08-23T00:29:24;4.50;;;3.80;;
7683;SDS011;3884;48.616;12.872;2022-08-23T00:31:52;4.83;;;3.53;;
7683;SDS011;3884;48.616;12.872;2022-08-23T00:34:19;5.57;;;3.90;;
7683;SDS011;3884;48.616;12.872;2022-08-23T00:36:46;4.90;;;4.20;;
7683;SDS011;3884;48.616;12.872;2022-08-23T00:39:14;3.90;;;3.50;;
7683;SDS011;3884;48.616;12.872;2022-08-23T00:41:41;4.73;;;3.50;;
7683;SDS011;3884;48.616;12.872;2022-08-23T00:44:12;3.50;;;3.27;;
7683;SDS011;3884;48.616;12.872;2022-08-23T00:47:00;3.80;;;3.50;;
7683;SDS011;3884;48.616;12.872;2022-08-23T00:49:46;5.20;;;3.70;;
7683;SDS011;3884;48.616;12.872;2022-08-23T00:52:21;4.83;;;3.57;;
7683;SDS011;3884;48.616;12.872;2022-08-23T00:54:53;5.23;;;3.70;;
7683;SDS011;3884;48.616;12.872;2022-08-23T00:57:21;5.93;;;4.00;;
7683;SDS011;3884;48.616;12.872;2022-08-23T00:59:50;4.50;;;3.80;;
7683;SDS011;3884;48.616;12.872;2022-08-23T01:02:17;7.17;;;4.80;;
7683;SDS011;3884;48.616;12.872;2022-08-23T01:04:47;5.43;;;3.97;;
7683;SDS011;3884;48.616;12.872;2022-08-23T01:07:19;3.97;;;3.67;;
7683;SDS011;3884;48.616;12.872;2022-08-23T01:09:53;5.63;;;4.40;;
7683;SDS011;3884;48.616;12.872;2022-08-23T01:12:28;4.70;;;4.20;;
7683;SDS011;3884;48.616;12.872;2022-08-23T01:15:04;6.97;;;4.40;;
7683;SDS011;3884;48.616;12.872;2022-08-23T01:17:36;4.93;;;4.43;;
7683;SDS011;3884;48.616;12.872;2022-08-23T01:20:09;5.00;;;4.47;;
7683;SDS011;3884;48.616;12.872;2022-08-23T01:22:42;6.00;;;4.40;;
7683;SDS011;3884;48.616;12.872;2022-08-23T01:25:14;4.57;;;4.17;;
7683;SDS011;3884;48.616;12.872;2022-08-23T01:27:46;6.23;;;4.73;;
7683;SDS011;3884;48.616;12.872;2022-08-23T01:30:16;5.30;;;4.80;;
7683;SDS011;3884;48.616;12.872;2022-08-23T01:32:48;5.23;;;4.60;;
7683;SDS011;3884;48.616;12.872;2022-08-23T01:35:19;4.50;;;4.10;;
7683;SDS011;3884;48.616;12.872;2022-08-23T01:37:51;5.13;;;4.63;;
7683;SDS011;3884;48.616;12.872;2022-08-23T01:40:20;5.30;;;4.80;;
7683;SDS011;3884;48.616;12.872;2022-08-23T01:42:47;5.43;;;4.93;;
7683;SDS011;3884;48.616;12.872;2022-08-23T01:45:14;4.80;;;4.33;;
7683;SDS011;3884;48.616;12.872;2022-08-23T01:47:43;4.97;;;4.57;;
7683;SDS011;3884;48.616;12.872;2022-08-23T01:50:10;5.00;;;4.60;;
7683;SDS011;3884;48.616;12.872;2022-08-23T01:52:38;5.03;;;4.53;;
7683;SDS011;3884;48.616;12.872;2022-08-23T01:55:06;5.73;;;4.60;;
7683;SDS011;3884;48.616;12.872;2022-08-23T01:57:36;5.67;;;4.60;;
7683;SDS011;3884;48.616;12.872;2022-08-23T02:00:06;4.83;;;4.27;;
7683;SDS011;3884;48.616;12.872;2022-08-23T02:02:38;6.13;;;4.60;;
7683;SDS011;3884;48.616;12.872;2022-08-23T02:05:05;6.67;;;4.50;;
7683;SDS011;3884;48.616;12.872;2022-08-23T02:07:36;4.50;;;4.10;;
7683;SDS011;3884;48.616;12.872;2022-08-23T02:10:03;4.83;;;4.27;;
7683;SDS011;3884;48.616;12.872;2022-08-23T02:12:32;4.80;;;4.30;;
7683;SDS011;3884;48.616;12.872;2022-08-23T02:15:10;4.67;;;4.27;;
7683;SDS011;3884;48.616;12.872;2022-08-23T02:17:40;5.20;;;3.87;;
7683;SDS011;3884;48.616;12.872;2022-08-23T02:20:08;4.67;;;3.83;;
7683;SDS011;3884;48.616;12.872;2022-08-23T02:22:37;4.90;;;4.00;;
7683;SDS011;3884;48.616;12.872;2022-08-23T02:25:04;5.10;;;4.60;;
7683;SDS011;3884;48.616;12.872;2022-08-23T02:27:33;6.53;;;4.07;;
7683;SDS011;3884;48.616;12.872;2022-08-23T02:30:00;4.37;;;3.97;;
7683;SDS011;3884;48.616;12.872;2022-08-23T02:32:29;4.20;;;3.80;;
7683;SDS011;3884;48.616;12.872;2022-08-23T02:34:56;5.33;;;4.83;;
7683;SDS011;3884;48.616;12.872;2022-08-23T02:37:23;4.87;;;4.40;;
7683;SDS011;3884;48.616;12.872;2022-08-23T02:39:49;4.80;;;4.40;;
7683;SDS011;3884;48.616;12.872;2022-08-23T02:42:16;5.30;;;4.50;;
7683;SDS011;3884;48.616;12.872;2022-08-23T02:44:43;5.60;;;4.90;;
7683;SDS011;3884;48.616;12.872;2022-08-23T02:47:10;5.87;;;5.37;;
7683;SDS011;3884;48.616;12.872;2022-08-23T02:49:44;5.77;;;5.27;;
7683;SDS011;3884;48.616;12.872;2022-08-23T02:52:11;5.20;;;4.70;;
7683;SDS011;3884;48.616;12.872;2022-08-23T02:54:40;7.67;;;5.33;;
7683;SDS011;3884;48.616;12.872;2022-08-23T02:57:08;5.80;;;5.20;;
7683;SDS011;3884;48.616;12.872;2022-08-23T02:59:35;5.10;;;4.60;;
7683;SDS011;3884;48.616;12.872;2022-08-23T03:02:04;5.53;;;4.87;;
7683;SDS011;3884;48.616;12.872;2022-08-23T03:04:36;7.33;;;5.23;;
7683;SDS011;3884;48.616;12.872;2022-08-23T03:07:05;5.63;;;5.00;;
7683;SDS011;3884;48.616;12.872;2022-08-23T03:09:34;6.37;;;5.80;;
7683;SDS011;3884;48.616;12.872;2022-08-23T03:12:00;6.97;;;5.63;;
7683;SDS011;3884;48.616;12.872;2022-08-23T03:14:30;6.73;;;5.97;;
7683;SDS011;3884;48.616;12.872;2022-08-23T03:16:58;6.23;;;5.43;;
7683;SDS011;3884;48.616;12.872;2022-08-23T03:19:25;5.53;;;5.13;;
7683;SDS011;3884;48.616;12.872;2022-08-23T03:21:52;9.70;;;5.77;;
7683;SDS011;3884;48.616;12.872;2022-08-23T03:24:20;5.60;;;5.10;;
7683;SDS011;3884;48.616;12.872;2022-08-23T03:26:47;5.70;;;5.10;;
7683;SDS011;3884;48.616;12.872;2022-08-23T03:29:15;5.83;;;5.03;;
7683;SDS011;3884;48.616;12.872;2022-08-23T03:31:57;5.60;;;5.10;;
7683;SDS011;3884;48.616;12.872;2022-08-23T03:34:25;6.33;;;5.13;;
7683;SDS011;3884;48.616;12.872;2022-08-23T03:36:53;8.40;;;5.30;;
7683;SDS011;3884;48.616;12.872;2022-08-23T03:39:22;9.23;;;5.60;;
7683;SDS011;3884;48.616;12.872;2022-08-23T03:41:49;5.33;;;4.83;;
7683;SDS011;3884;48.616;12.872;2022-08-23T03:44:17;5.97;;;5.03;;
7683;SDS011;3884;48.616;12.872;2022-08-23T03:46:44;5.73;;;4.93;;
7683;SDS011;3884;48.616;12.872;2022-08-23T03:49:11;5.63;;;4.80;;
7683;SDS011;3884;48.616;12.872;2022-08-23T03:51:48;6.37;;;5.77;;
7683;SDS011;3884;48.616;12.872;2022-08-23T03:54:15;6.70;;;6.00;;
7683;SDS011;3884;48.616;12.872;2022-08-23T03:56:51;7.57;;;6.73;;
7683;SDS011;3884;48.616;12.872;2022-08-23T03:59:20;7.37;;;6.67;;
7683;SDS011;3884;48.616;12.872;2022-08-23T04:01:48;5.87;;;5.37;;
7683;SDS011;3884;48.616;12.872;2022-08-23T04:04:15;6.13;;;5.53;;
7683;SDS011;3884;48.616;12.872;2022-08-23T04:07:02;5.70;;;5.20;;
7683;SDS011;3884;48.616;12.872;2022-08-23T04:09:28;6.00;;;5.40;;
7683;SDS011;3884;48.616;12.872;2022-08-23T04:11:57;6.43;;;5.80;;
7683;SDS011;3884;48.616;12.872;2022-08-23T04:14:24;7.53;;;5.60;;
7683;SDS011;3884;48.616;12.872;2022-08-23T04:16:51;6.37;;;5.37;;
7683;SDS011;3884;48.616;12.872;2022-08-23T04:19:19;6.50;;;5.87;;
7683;SDS011;3884;48.616;12.872;2022-08-23T04:21:58;7.37;;;6.77;;
7683;SDS011;3884;48.616;12.872;2022-08-23T04:24:30;6.63;;;6.03;;
7683;SDS011;3884;48.616;12.872;2022-08-23T04:26:58;7.27;;;6.43;;
7683;SDS011;3884;48.616;12.872;2022-08-23T04:29:26;8.57;;;7.00;;
7683;SDS011;3884;48.616;12.872;2022-08-23T04:31:52;6.93;;;6.23;;
7683;SDS011;3884;48.616;12.872;2022-08-23T04:34:19;7.10;;;6.43;;
7683;SDS011;3884;48.616;12.872;2022-08-23T04:36:47;7.53;;;6.87;;
7683;SDS011;3884;48.616;12.872;2022-08-23T04:39:14;7.20;;;6.50;;
7683;SDS011;3884;48.616;12.872;2022-08-23T04:41:43;6.53;;;5.70;;
7683;SDS011;3884;48.616;12.872;2022-08-23T04:44:29;9.27;;;6.43;;
7683;SDS011;3884;48.616;12.872;2022-08-23T04:46:59;8.27;;;6.70;;
7683;SDS011;3884;48.616;12.872;2022-08-23T04:49:26;10.63;;;7.80;;
7683;SDS011;3884;48.616;12.872;2022-08-23T04:51:53;7.83;;;7.03;;
7683;SDS011;3884;48.616;12.872;2022-08-23T04:54:21;7.37;;;6.77;;
7683;SDS011;3884;48.616;12.872;2022-08-23T04:57:05;8.43;;;6.97;;
7683;SDS011;3884;48.616;12.872;2022-08-23T04:59:35;8.07;;;6.90;;
7683;SDS011;3884;48.616;12.872;2022-08-23T05:02:02;9.23;;;6.97;;
7683;SDS011;3884;48.616;12.872;2022-08-23T05:04:29;7.80;;;6.37;;
7683;SDS011;3884;48.616;12.872;2022-08-23T05:06:57;8.23;;;7.00;;
7683;SDS011;3884;48.616;12.872;2022-08-23T05:09:24;7.67;;;6.87;;
7683;SDS011;3884;48.616;12.872;2022-08-23T05:11:51;8.60;;;6.77;;
7683;SDS011;3884;48.616;12.872;2022-08-23T05:14:18;7.70;;;7.00;;
7683;SDS011;3884;48.616;12.872;2022-08-23T05:16:47;7.10;;;6.50;;
7683;SDS011;3884;48.616;12.872;2022-08-23T05:19:14;7.67;;;6.87;;
7683;SDS011;3884;48.616;12.872;2022-08-23T05:21:43;8.83;;;7.60;;
7683;SDS011;3884;48.616;12.872;2022-08-23T05:24:12;7.53;;;6.83;;
7683;SDS011;3884;48.616;12.872;2022-08-23T05:26:40;8.20;;;7.40;;
7683;SDS011;3884;48.616;12.872;2022-08-23T05:29:07;8.37;;;7.17;;
7683;SDS011;3884;48.616;12.872;2022-08-23T05:31:40;7.83;;;7.17;;
7683;SDS011;3884;48.616;12.872;2022-08-23T05:34:09;7.93;;;7.20;;
7683;SDS011;3884;48.616;12.872;2022-08-23T05:36:49;8.33;;;7.53;;
7683;SDS011;3884;48.616;12.872;2022-08-23T05:39:18;8.63;;;7.83;;
7683;SDS011;3884;48.616;12.872;2022-08-23T05:41:46;8.87;;;7.70;;
7683;SDS011;3884;48.616;12.872;2022-08-23T05:44:13;9.50;;;8.30;;
7683;SDS011;3884;48.616;12.872;2022-08-23T05:46:42;10.13;;;7.70;;
7683;SDS011;3884;48.616;12.872;2022-08-23T05:49:35;8.00;;;7.20;;
7683;SDS011;3884;48.616;12.872;2022-08-23T05:52:02;7.40;;;6.70;;
7683;SDS011;3884;48.616;12.872;2022-08-23T05:54:31;7.73;;;7.03;;
7683;SDS011;3884;48.616;12.872;2022-08-23T05:57:14;7.90;;;7.20;;
7683;SDS011;3884;48.616;12.872;2022-08-23T05:59:41;8.13;;;7.33;;
7683;SDS011;3884;48.616;12.872;2022-08-23T06:02:08;8.10;;;7.30;;
7683;SDS011;3884;48.616;12.872;2022-08-23T06:04:37;7.90;;;6.90;;
7683;SDS011;3884;48.616;12.872;2022-08-23T06:07:04;7.33;;;6.63;;
7683;SDS011;3884;48.616;12.872;2022-08-23T06:09:31;7.37;;;6.50;;
7683;SDS011;3884;48.616;12.872;2022-08-23T06:11:58;6.97;;;6.37;;
7683;SDS011;3884;48.616;12.872;2022-08-23T06:14:25;10.17;;;6.67;;
7683;SDS011;3884;48.616;12.872;2022-08-23T06:16:53;8.30;;;6.77;;
7683;SDS011;3884;48.616;12.872;2022-08-23T06:19:22;7.00;;;6.30;;
7683;SDS011;3884;48.616;12.872;2022-08-23T06:22:09;8.30;;;6.13;;
7683;SDS011;3884;48.616;12.872;2022-08-23T06:24:39;6.73;;;6.03;;
7683;SDS011;3884;48.616;12.872;2022-08-23T06:27:15;8.13;;;6.37;;
7683;SDS011;3884;48.616;12.872;2022-08-23T06:29:42;6.33;;;5.70;;
7683;SDS011;3884;48.616;12.872;2022-08-23T06:32:29;7.07;;;5.97;;
7683;SDS011;3884;48.616;12.872;2022-08-23T06:35:14;8.33;;;5.47;;
7683;SDS011;3884;48.616;12.872;2022-08-23T06:37:50;6.80;;;6.03;;
7683;SDS011;3884;48.616;12.872;2022-08-23T06:40:39;6.50;;;5.90;;
7683;SDS011;3884;48.616;12.872;2022-08-23T06:43:36;6.03;;;5.13;;
7683;SDS011;3884;48.616;12.872;2022-08-23T06:46:30;5.83;;;5.07;;
7683;SDS011;3884;48.616;12.872;2022-08-23T06:48:58;6.20;;;5.57;;
7683;SDS011;3884;48.616;12.872;2022-08-23T06:51:29;6.47;;;5.13;;
7683;SDS011;3884;48.616;12.872;2022-08-23T06:54:12;6.13;;;5.30;;
7683;SDS011;3884;48.616;12.872;2022-08-23T06:56:47;6.10;;;5.30;;
7683;SDS011;3884;48.616;12.872;2022-08-23T06:59:18;5.33;;;4.67;;
7683;SDS011;3884;48.616;12.872;2022-08-23T07:01:55;6.07;;;4.77;;
7683;SDS011;3884;48.616;12.872;2022-08-23T07:04:47;5.23;;;4.63;;
7683;SDS011;3884;48.616;12.872;2022-08-23T07:07:36;4.83;;;4.30;;
7683;SDS011;3884;48.616;12.872;2022-08-23T07:10:05;5.27;;;4.40;;
7683;SDS011;3884;48.616;12.872;2022-08-23T07:12:36;4.53;;;4.13;;
7683;SDS011;3884;48.616;12.872;2022-08-23T07:15:06;5.07;;;4.57;;
7683;SDS011;3884;48.616;12.872;2022-08-23T07:17:35;4.20;;;3.80;;
7683;SDS011;3884;48.616;12.872;2022-08-23T07:20:03;5.03;;;4.30;;
7683;SDS011;3884;48.616;12.872;2022-08-23T07:22:33;4.23;;;3.70;;
7683;SDS011;3884;48.616;12.872;2022-08-23T07:25:01;5.23;;;3.50;;
7683;SDS011;3884;48.616;12.872;2022-08-23T07:27:33;3.47;;;3.00;;
7683;SDS011;3884;48.616;12.872;2022-08-23T07:30:03;4.33;;;3.13;;
7683;SDS011;3884;48.616;12.872;2022-08-23T07:32:31;3.87;;;3.30;;
7683;SDS011;3884;48.616;12.872;2022-08-23T07:35:07;5.10;;;3.23;;
7683;SDS011;3884;48.616;12.872;2022-08-23T07:37:38;3.43;;;3.13;;
7683;SDS011;3884;48.616;12.872;2022-08-23T07:40:06;4.13;;;3.27;;
7683;SDS011;3884;48.616;12.872;2022-08-23T07:42:36;3.87;;;3.30;;
7683;SDS011;3884;48.616;12.872;2022-08-23T07:45:04;4.00;;;2.90;;
7683;SDS011;3884;48.616;12.872;2022-08-23T07:47:33;3.43;;;3.13;;
7683;SDS011;3884;48.616;12.872;2022-08-23T07:49:59;3.47;;;2.53;;
7683;SDS011;3884;48.616;12.872;2022-08-23T07:52:28;4.03;;;3.10;;
7683;SDS011;3884;48.616;12.872;2022-08-23T07:54:55;3.73;;;3.20;;
7683;SDS011;3884;48.616;12.872;2022-08-23T07:57:41;5.07;;;3.70;;
7683;SDS011;3884;48.616;12.872;2022-08-23T08:00:40;3.80;;;3.40;;
7683;SDS011;3884;48.616;12.872;2022-08-23T08:03:29;6.00;;;4.13;;
7683;SDS011;3884;48.616;12.872;2022-08-23T08:06:23;4.20;;;3.63;;
7683;SDS011;3884;48.616;12.872;2022-08-23T08:08:53;4.60;;;3.37;;
7683;SDS011;3884;48.616;12.872;2022-08-23T08:11:22;5.53;;;3.50;;
7683;SDS011;3884;48.616;12.872;2022-08-23T08:13:53;7.23;;;3.10;;
7683;SDS011;3884;48.616;12.872;2022-08-23T08:16:23;4.17;;;3.40;;
7683;SDS011;3884;48.616;12.872;2022-08-23T08:18:52;3.60;;;3.20;;
7683;SDS011;3884;48.616;12.872;2022-08-23T08:21:38;3.47;;;3.03;;
7683;SDS011;3884;48.616;12.872;2022-08-23T08:24:18;5.30;;;2.80;;
7683;SDS011;3884;48.616;12.872;2022-08-23T08:26:59;3.03;;;2.73;;
7683;SDS011;3884;48.616;12.872;2022-08-23T08:29:28;5.23;;;3.30;;
7683;SDS011;3884;48.616;12.872;2022-08-23T08:31:55;4.70;;;3.13;;
7683;SDS011;3884;48.616;12.872;2022-08-23T08:34:21;3.87;;;2.47;;
7683;SDS011;3884;48.616;12.872;2022-08-23T08:36:49;3.63;;;2.73;;
7683;SDS011;3884;48.616;12.872;2022-08-23T08:39:21;2.90;;;2.67;;
7683;SDS011;3884;48.616;12.872;2022-08-23T08:42:01;4.87;;;2.80;;
7683;SDS011;3884;48.616;12.872;2022-08-23T08:44:47;3.27;;;2.67;;
7683;SDS011;3884;48.616;12.872;2022-08-23T08:47:24;3.23;;;2.87;;
7683;SDS011;3884;48.616;12.872;2022-08-23T08:49:59;5.33;;;2.37;;
7683;SDS011;3884;48.616;12.872;2022-08-23T08:52:32;3.17;;;2.80;;
7683;SDS011;3884;48.616;12.872;2022-08-23T08:55:10;3.43;;;2.23;;
7683;SDS011;3884;48.616;12.872;2022-08-23T08:57:43;2.17;;;1.83;;
7683;SDS011;3884;48.616;12.872;2022-08-23T09:00:15;2.90;;;2.10;;
7683;SDS011;3884;48.616;12.872;2022-08-23T09:02:45;3.77;;;2.40;;
7683;SDS011;3884;48.616;12.872;2022-08-23T09:05:13;2.40;;;1.93;;
7683;SDS011;3884;48.616;12.872;2022-08-23T09:07:45;4.03;;;2.50;;
7683;SDS011;3884;48.616;12.872;2022-08-23T09:10:24;4.43;;;2.73;;
7683;SDS011;3884;48.616;12.872;2022-08-23T09:13:22;4.57;;;3.23;;
7683;SDS011;3884;48.616;12.872;2022-08-23T09:16:14;3.90;;;2.30;;
7683;SDS011;3884;48.616;12.872;2022-08-23T09:18:48;3.00;;;2.47;;
7683;SDS011;3884;48.616;12.872;2022-08-23T09:21:18;4.20;;;2.47;;
7683;SDS011;3884;48.616;12.872;2022-08-23T09:23:47;3.07;;;2.77;;
7683;SDS011;3884;48.616;12.872;2022-08-23T09:26:25;4.93;;;2.80;;
7683;SDS011;3884;48.616;12.872;2022-08-23T09:28:55;2.50;;;2.30;;
7683;SDS011;3884;48.616;12.872;2022-08-23T09:34:14;3.73;;;2.37;;
7683;SDS011;3884;48.616;12.872;2022-08-23T09:37:04;5.20;;;2.97;;
7683;SDS011;3884;48.616;12.872;2022-08-23T09:39:37;2.73;;;2.50;;
7683;SDS011;3884;48.616;12.872;2022-08-23T09:42:24;3.23;;;2.20;;
7683;SDS011;3884;48.616;12.872;2022-08-23T09:44:54;3.30;;;2.10;;
7683;SDS011;3884;48.616;12.872;2022-08-23T09:47:30;2.30;;;2.10;;
7683;SDS011;3884;48.616;12.872;2022-08-23T09:50:05;2.60;;;2.10;;
7683;SDS011;3884;48.616;12.872;2022-08-23T09:52:35;6.83;;;2.97;;
7683;SDS011;3884;48.616;12.872;2022-08-23T09:55:05;4.17;;;2.57;;
7683;SDS011;3884;48.616;12.872;2022-08-23T09:57:44;8.43;;;3.30;;
7683;SDS011;3884;48.616;12.872;2022-08-23T10:00:19;3.07;;;2.53;;
7683;SDS011;3884;48.616;12.872;2022-08-23T10:02:52;4.53;;;2.73;;
7683;SDS011;3884;48.616;12.872;2022-08-23T10:05:29;4.57;;;2.50;;
7683;SDS011;3884;48.616;12.872;2022-08-23T10:08:05;2.77;;;2.10;;
7683;SDS011;3884;48.616;12.872;2022-08-23T10:10:36;2.40;;;2.20;;
7683;SDS011;3884;48.616;12.872;2022-08-23T10:13:08;2.63;;;2.30;;
7683;SDS011;3884;48.616;12.872;2022-08-23T10:15:43;3.37;;;2.50;;
7683;SDS011;3884;48.616;12.872;2022-08-23T10:18:21;4.00;;;2.50;;
7683;SDS011;3884;48.616;12.872;2022-08-23T10:21:00;2.87;;;2.57;;
7683;SDS011;3884;48.616;12.872;2022-08-23T10:23:34;3.70;;;2.40;;
7683;SDS011;3884;48.616;12.872;2022-08-23T10:26:12;4.00;;;2.50;;
7683;SDS011;3884;48.616;12.872;2022-08-23T10:28:53;3.93;;;2.40;;
7683;SDS011;3884;48.616;12.872;2022-08-23T10:31:45;4.03;;;2.30;;
7683;SDS011;3884;48.616;12.872;2022-08-23T10:34:26;2.90;;;2.03;;
7683;SDS011;3884;48.616;12.872;2022-08-23T10:37:12;3.27;;;2.20;;
7683;SDS011;3884;48.616;12.872;2022-08-23T10:40:03;2.40;;;2.00;;
7683;SDS011;3884;48.616;12.872;2022-08-23T10:42:38;3.43;;;2.13;;
7683;SDS011;3884;48.616;12.872;2022-08-23T10:45:09;3.40;;;2.13;;
7683;SDS011;3884;48.616;12.872;2022-08-23T10:47:47;4.70;;;2.40;;
7683;SDS011;3884;48.616;12.872;2022-08-23T10:50:25;3.80;;;2.70;;
7683;SDS011;3884;48.616;12.872;2022-08-23T10:52:58;3.27;;;2.30;;
7683;SDS011;3884;48.616;12.872;2022-08-23T10:55:32;3.10;;;2.00;;
7683;SDS011;3884;48.616;12.872;2022-08-23T10:58:21;2.77;;;2.00;;
7683;SDS011;3884;48.616;12.872;2022-08-23T11:00:52;4.10;;;1.83;;
7683;SDS011;3884;48.616;12.872;2022-08-23T11:03:22;3.37;;;1.90;;
7683;SDS011;3884;48.616;12.872;2022-08-23T11:08:59;3.57;;;2.30;;
7683;SDS011;3884;48.616;12.872;2022-08-23T11:11:37;4.37;;;2.13;;
7683;SDS011;3884;48.616;12.872;2022-08-23T11:14:11;3.27;;;2.00;;
7683;SDS011;3884;48.616;12.872;2022-08-23T11:16:53;3.53;;;1.97;;
7683;SDS011;3884;48.616;12.872;2022-08-23T11:22:14;2.43;;;1.90;;
7683;SDS011;3884;48.616;12.872;2022-08-23T11:24:50;3.60;;;1.70;;
7683;SDS011;3884;48.616;12.872;2022-08-23T11:27:30;2.43;;;1.67;;
7683;SDS011;3884;48.616;12.872;2022-08-23T11:33:26;2.50;;;1.90;;
7683;SDS011;3884;48.616;12.872;2022-08-23T11:36:13;2.87;;;1.73;;
7683;SDS011;3884;48.616;12.872;2022-08-23T11:39:00;2.03;;;1.60;;
7683;SDS011;3884;48.616;12.872;2022-08-23T11:41:32;3.23;;;1.83;;
7683;SDS011;3884;48.616;12.872;2022-08-23T11:44:17;1.80;;;1.50;;
7683;SDS011;3884;48.616;12.872;2022-08-23T11:47:02;4.47;;;1.63;;
7683;SDS011;3884;48.616;12.872;2022-08-23T11:49:41;1.83;;;1.60;;
7683;SDS011;3884;48.616;12.872;2022-08-23T11:52:47;3.40;;;1.50;;
7683;SDS011;3884;48.616;12.872;2022-08-23T11:55:37;2.43;;;1.90;;
7683;SDS011;3884;48.616;12.872;2022-08-23T11:58:20;2.00;;;1.60;;
7683;SDS011;3884;48.616;12.872;2022-08-23T12:03:40;2.33;;;1.70;;
7683;SDS011;3884;48.616;12.872;2022-08-23T12:06:41;1.87;;;1.67;;
7683;SDS011;3884;48.616;12.872;2022-08-23T12:09:12;3.30;;;1.80;;
7683;SDS011;3884;48.616;12.872;2022-08-23T12:12:08;2.77;;;1.87;;
7683;SDS011;3884;48.616;12.872;2022-08-23T12:14:52;2.83;;;1.73;;
7683;SDS011;3884;48.616;12.872;2022-08-23T12:20:21;1.90;;;1.40;;
7683;SDS011;3884;48.616;12.872;2022-08-23T12:22:56;1.53;;;1.40;;
7683;SDS011;3884;48.616;12.872;2022-08-23T12:25:29;2.80;;;1.60;;
7683;SDS011;3884;48.616;12.872;2022-08-23T12:28:00;2.30;;;1.50;;
7683;SDS011;3884;48.616;12.872;2022-08-23T12:30:33;1.83;;;1.63;;
7683;SDS011;3884;48.616;12.872;2022-08-23T12:33:08;3.90;;;1.70;;
7683;SDS011;3884;48.616;12.872;2022-08-23T12:35:48;2.37;;;1.60;;
7683;SDS011;3884;48.616;12.872;2022-08-23T12:38:23;1.63;;;1.40;;
7683;SDS011;3884;48.616;12.872;2022-08-23T12:41:10;1.77;;;1.40;;
7683;SDS011;3884;48.616;12.872;2022-08-23T12:43:53;1.93;;;1.50;;
7683;SDS011;3884;48.616;12.872;2022-08-23T12:46:28;1.37;;;1.27;;
7683;SDS011;3884;48.616;12.872;2022-08-23T12:48:57;1.70;;;1.60;;
7683;SDS011;3884;48.616;12.872;2022-08-23T12:51:24;1.73;;;1.63;;
7683;SDS011;3884;48.616;12.872;2022-08-23T12:53:51;1.93;;;1.77;;
7683;SDS011;3884;48.616;12.872;2022-08-23T12:56:19;1.70;;;1.50;;
7683;SDS011;3884;48.616;12.872;2022-08-23T12:58:54;2.47;;;1.60;;
7683;SDS011;3884;48.616;12.872;2022-08-23T13:01:27;1.60;;;1.50;;
7683;SDS011;3884;48.616;12.872;2022-08-23T13:03:58;2.07;;;1.40;;
7683;SDS011;3884;48.616;12.872;2022-08-23T13:06:30;1.47;;;1.20;;
7683;SDS011;3884;48.616;12.872;2022-08-23T13:09:02;1.53;;;1.43;;
7683;SDS011;3884;48.616;12.872;2022-08-23T13:11:33;2.17;;;1.50;;
7683;SDS011;3884;48.616;12.872;2022-08-23T13:16:52;2.60;;;1.30;;
7683;SDS011;3884;48.616;12.872;2022-08-23T13:19:22;1.93;;;1.50;;
7683;SDS011;3884;48.616;12.872;2022-08-23T13:24:37;3.37;;;1.57;;
7683;SDS011;3884;48.616;12.872;2022-08-23T13:29:57;3.43;;;1.60;;
7683;SDS011;3884;48.616;12.872;2022-08-23T13:32:33;1.90;;;1.60;;
7683;SDS011;3884;48.616;12.872;2022-08-23T13:35:27;2.60;;;1.50;;
7683;SDS011;3884;48.616;12.872;2022-08-23T13:37:57;1.97;;;1.40;;
7683;SDS011;3884;48.616;12.872;2022-08-23T13:40:28;2.00;;;1.60;;
7683;SDS011;3884;48.616;12.872;2022-08-23T13:42:58;1.87;;;1.63;;
7683;SDS011;3884;48.616;12.872;2022-08-23T13:45:29;1.73;;;1.50;;
7683;SDS011;3884;48.616;12.872;2022-08-23T13:47:58;1.50;;;1.40;;
7683;SDS011;3884;48.616;12.872;2022-08-23T13:50:28;2.87;;;1.70;;
7683;SDS011;3884;48.616;12.872;2022-08-23T13:52:57;2.27;;;1.57;;
7683;SDS011;3884;48.616;12.872;2022-08-23T13:55:24;3.37;;;1.63;;
7683;SDS011;3884;48.616;12.872;2022-08-23T13:57:53;1.80;;;1.50;;
7683;SDS011;3884;48.616;12.872;2022-08-23T14:00:21;2.40;;;1.40;;
7683;SDS011;3884;48.616;12.872;2022-08-23T14:02:50;1.97;;;1.50;;
7683;SDS011;3884;48.616;12.872;2022-08-23T14:05:18;3.63;;;1.70;;
7683;SDS011;3884;48.616;12.872;2022-08-23T14:07:47;6.57;;;1.50;;
7683;SDS011;3884;48.616;12.872;2022-08-23T14:10:17;1.50;;;1.40;;
7683;SDS011;3884;48.616;12.872;2022-08-23T14:12:45;1.70;;;1.60;;
7683;SDS011;3884;48.616;12.872;2022-08-23T14:15:13;1.67;;;1.57;;
7683;SDS011;3884;48.616;12.872;2022-08-23T14:17:41;2.20;;;1.40;;
7683;SDS011;3884;48.616;12.872;2022-08-23T14:20:11;3.17;;;1.70;;
7683;SDS011;3884;48.616;12.872;2022-08-23T14:22:38;1.70;;;1.50;;
7683;SDS011;3884;48.616;12.872;2022-08-23T14:25:06;3.87;;;1.50;;
7683;SDS011;3884;48.616;12.872;2022-08-23T14:27:34;1.43;;;1.33;;
7683;SDS011;3884;48.616;12.872;2022-08-23T14:30:04;6.20;;;1.83;;
7683;SDS011;3884;48.616;12.872;2022-08-23T14:32:31;1.90;;;1.80;;
7683;SDS011;3884;48.616;12.872;2022-08-23T14:34:59;3.03;;;1.90;;
7683;SDS011;3884;48.616;12.872;2022-08-23T14:37:27;2.77;;;1.80;;
7683;SDS011;3884;48.616;12.872;2022-08-23T14:39:54;6.27;;;2.20;;
7683;SDS011;3884;48.616;12.872;2022-08-23T14:42:21;2.87;;;1.90;;
7683;SDS011;3884;48.616;12.872;2022-08-23T14:44:48;2.33;;;2.13;;
7683;SDS011;3884;48.616;12.872;2022-08-23T14:47:15;3.40;;;2.20;;
7683;SDS011;3884;48.616;12.872;2022-08-23T14:49:42;4.23;;;2.10;;
7683;SDS011;3884;48.616;12.872;2022-08-23T14:52:09;2.50;;;2.30;;
7683;SDS011;3884;48.616;12.872;2022-08-23T14:54:39;2.50;;;2.07;;
7683;SDS011;3884;48.616;12.872;2022-08-23T14:57:07;3.20;;;1.97;;
7683;SDS011;3884;48.616;12.872;2022-08-23T14:59:34;4.90;;;2.20;;
7683;SDS011;3884;48.616;12.872;2022-08-23T15:02:00;3.43;;;2.10;;
7683;SDS011;3884;48.616;12.872;2022-08-23T15:04:29;4.03;;;2.40;;
7683;SDS011;3884;48.616;12.872;2022-08-23T15:06:56;3.57;;;2.50;;
7683;SDS011;3884;48.616;12.872;2022-08-23T15:09:23;4.17;;;2.70;;
7683;SDS011;3884;48.616;12.872;2022-08-23T15:11:51;3.13;;;2.50;;
7683;SDS011;3884;48.616;12.872;2022-08-23T15:14:19;4.73;;;2.40;;
7683;SDS011;3884;48.616;12.872;2022-08-23T15:16:46;5.00;;;2.60;;
7683;SDS011;3884;48.616;12.872;2022-08-23T15:19:13;3.87;;;2.33;;
7683;SDS011;3884;48.616;12.872;2022-08-23T15:21:40;2.50;;;2.23;;
7683;SDS011;3884;48.616;12.872;2022-08-23T15:24:07;3.47;;;2.40;;
7683;SDS011;3884;48.616;12.872;2022-08-23T15:26:34;2.97;;;2.50;;
7683;SDS011;3884;48.616;12.872;2022-08-23T15:29:03;4.77;;;2.50;;
7683;SDS011;3884;48.616;12.872;2022-08-23T15:31:30;4.50;;;2.20;;
7683;SDS011;3884;48.616;12.872;2022-08-23T15:33:57;4.27;;;2.40;;
7683;SDS011;3884;48.616;12.872;2022-08-23T15:36:24;5.60;;;2.80;;
7683;SDS011;3884;48.616;12.872;2022-08-23T15:38:52;3.67;;;2.60;;
7683;SDS011;3884;48.616;12.872;2022-08-23T15:41:19;4.53;;;2.50;;
7683;SDS011;3884;48.616;12.872;2022-08-23T15:43:46;3.60;;;2.23;;
7683;SDS011;3884;48.616;12.872;2022-08-23T15:46:17;2.83;;;2.47;;
7683;SDS011;3884;48.616;12.872;2022-08-23T15:48:46;4.67;;;2.60;;
7683;SDS011;3884;48.616;12.872;2022-08-23T15:51:18;3.47;;;2.40;;
7683;SDS011;3884;48.616;12.872;2022-08-23T15:53:45;3.07;;;2.77;;
7683;SDS011;3884;48.616;12.872;2022-08-23T15:56:13;3.47;;;2.57;;
7683;SDS011;3884;48.616;12.872;2022-08-23T15:58:43;4.37;;;2.50;;